createdAt,value
2024-02-21T00:00:38.693Z,947.9
2024-02-21T00:15:38.782Z,948.4
2024-02-21T00:30:39.506Z,948.2
2024-02-21T00:45:40.668Z,948.1
2024-02-21T01:00:40.712Z,948.3
2024-02-21T01:15:42.210Z,947.6
2024-02-21T01:30:42.181Z,947.6
2024-02-21T01:45:43.640Z,947.5
2024-02-21T02:00:43.491Z,947.4
2024-02-21T02:15:48.411Z,947.2
2024-02-21T02:30:46.595Z,947.5
2024-02-21T02:45:45.610Z,946.8
2024-02-21T03:00:45.908Z,946.5
2024-02-21T03:15:53.845Z,946.5
2024-02-21T03:30:47.746Z,946.1
2024-02-21T04:00:50.402Z,946
2024-02-21T04:15:49.878Z,946
2024-02-21T04:30:50.714Z,945.8
2024-02-21T04:45:51.075Z,945.4
2024-02-21T05:00:51.779Z,944.7
2024-02-21T05:15:53.108Z,944.9
2024-02-21T05:30:53.593Z,944.7
2024-02-21T05:45:53.596Z,944.5
2024-02-21T06:00:54.609Z,944.1
2024-02-21T06:12:53.212Z,943.2
2024-02-21T06:27:53.594Z,942
2024-02-21T06:42:57.706Z,942.1
2024-02-21T06:57:54.423Z,942.5
2024-02-21T07:12:54.693Z,943.1
2024-02-21T07:27:56.570Z,941.5
2024-02-21T07:42:56.215Z,940.8
2024-02-21T07:57:57.393Z,939.9
2024-02-21T08:12:58.200Z,939.1
2024-02-21T08:27:57.911Z,938.3
2024-02-21T08:42:59.425Z,938.4
2024-02-21T08:58:01.337Z,937.8
2024-02-21T09:13:00.649Z,937.7
2024-02-21T09:28:01.416Z,937.7
2024-02-21T09:43:02.635Z,937.7
2024-02-21T09:58:02.300Z,937.5
2024-02-21T10:13:03.239Z,937.2
2024-02-21T10:28:04.526Z,936.9
2024-02-21T10:43:04.144Z,936.7
2024-02-21T10:58:05.814Z,936.5
2024-02-21T11:13:06.064Z,936.1
2024-02-21T11:28:08.876Z,935.9
2024-02-21T11:43:07.360Z,935.5
2024-02-21T11:58:08.146Z,935.2
2024-02-21T12:13:08.448Z,934.9
2024-02-21T12:28:09.065Z,934.6
2024-02-21T12:43:09.789Z,934.3
2024-02-21T12:58:10.394Z,934.1
2024-02-21T13:13:10.513Z,933.8
2024-02-21T13:28:11.494Z,933.5
2024-02-21T13:43:12.570Z,933.2
2024-02-21T13:58:13.283Z,933
2024-02-21T14:13:13.073Z,932.9
2024-02-21T14:28:14.527Z,932.7
2024-02-21T14:43:15.234Z,932.5
2024-02-21T14:58:15.488Z,932.4
2024-02-21T15:13:16.505Z,932.2
2024-02-21T15:28:17.511Z,932.2
2024-02-21T15:43:19.058Z,932.2
2024-02-21T15:58:18.576Z,932.1
2024-02-21T16:13:20.217Z,932
2024-02-21T16:28:20.184Z,932
2024-02-21T16:43:20.916Z,931.9
2024-02-21T16:58:22.124Z,931.8
2024-02-21T17:13:22.154Z,931.7
2024-02-21T17:28:22.732Z,931.6
2024-02-21T17:43:23.631Z,931.3
2024-02-21T17:58:24.859Z,931.2
2024-02-21T18:13:25.723Z,931
2024-02-21T18:28:25.853Z,931
2024-02-21T18:43:26.211Z,930.8
2024-02-21T18:58:31.552Z,930.7
2024-02-21T19:13:35.141Z,930.7
2024-02-21T19:28:32.838Z,930.7
2024-02-21T19:43:33.727Z,930.7
2024-02-21T19:58:34.511Z,931.2
2024-02-21T20:14:01.811Z,931.2
2024-02-21T20:28:34.680Z,930.3
2024-02-21T20:43:36.565Z,930.2
2024-02-21T20:58:37.195Z,929.9
2024-02-21T21:13:42.449Z,929.7
2024-02-21T21:28:38.098Z,929.6
2024-02-21T21:43:41.490Z,929.6
2024-02-21T21:58:39.678Z,929.5
2024-02-21T22:13:41.633Z,929.6
2024-02-21T22:28:41.246Z,929.3
2024-02-21T22:43:41.316Z,929.4
2024-02-21T22:58:42.529Z,929.1
2024-02-21T23:00:40.687Z,929.1
2024-02-21T23:15:35.619Z,928.4
2024-02-21T23:30:36.561Z,927.8
2024-02-21T23:45:36.299Z,927.5
